< Cyclone 200601 2006 Season Cyclone 200606 >
Cyclone 200605 (CLARE)
General InformationDetailed Track InformationTrack Information on Google MapsList of All Images || ResourceGoogle EarthGE AnimationAtom FeedGeoJSON
Detalied Best Track Wind (Time Zone = UTC)
Year Month Day Hour Lat. Long. Wind (kt) Gust (kt) Direc. of Major Storm Axis Radius of Major Storm Axis (nm) Radius of Minor Storm Axis (nm) Direc. of Major Gale Axis Radius of Major Gale Axis (nm) Radius of Minor Gale Axis (nm) Image
2006 1 6 06 -11.2 129.1 20 45 symmetric - - symmetric - - Image
2006 1 6 12 -11.3 127.9 25 45 symmetric - - symmetric - - Image
2006 1 6 18 -11.7 126.5 25 45 symmetric - - symmetric - - Image
2006 1 7 00 -12.6 125.3 25 45 symmetric - - symmetric - - Image
2006 1 7 06 -13.5 124.2 35 45 symmetric - - symmetric - - Image
2006 1 7 12 -14.4 123.2 40 55 symmetric - - symmetric - - Image
2006 1 7 18 -15.3 121.8 45 60 symmetric - - symmetric - - Image
2006 1 8 00 -15.9 120.6 50 70 symmetric - - symmetric - - Image
2006 1 8 06 -16.4 119.9 50 70 symmetric - - symmetric - - Image
2006 1 8 12 -17.3 119.2 50 70 symmetric - - symmetric - - Image
2006 1 8 18 -18.0 118.3 60 85 symmetric - - symmetric - - Image
2006 1 8 21 -18.4 117.9 60 85 symmetric - - symmetric - - Image
2006 1 9 00 -18.7 117.7 70 95 symmetric - - symmetric - - Image
2006 1 9 03 -19.2 117.4 75 105 symmetric - - symmetric - - Image
2006 1 9 06 -19.6 117.1 75 105 symmetric - - symmetric - - Image
2006 1 9 09 -20.0 116.8 75 105 symmetric - - symmetric - - Image
2006 1 9 12 -20.3 116.6 75 105 symmetric - - symmetric - - Image
2006 1 9 15 -20.6 116.4 70 95 symmetric - - symmetric - - Image
2006 1 9 18 -20.8 116.3 65 90 symmetric - - symmetric - - Image
2006 1 9 21 -21.2 116.2 65 90 symmetric - - symmetric - - Image
2006 1 10 00 -21.6 116.3 60 85 symmetric - - symmetric - - Image
2006 1 10 03 -22.1 116.2 55 80 symmetric - - symmetric - - Image
2006 1 10 06 -22.5 116.2 55 80 symmetric - - symmetric - - Image
2006 1 10 09 -22.7 116.2 50 70 symmetric - - symmetric - - Image
2006 1 10 12 -22.9 116.2 40 55 symmetric - - symmetric - - Image
2006 1 10 15 -23.2 116.2 35 50 symmetric - - symmetric - - Image
2006 1 10 18 -23.5 116.2 30 45 symmetric - - symmetric - - Image
< Cyclone 200601 2006 Season Cyclone 200606 >

Help